Terminal Aerodrome Forecast
Issued by NWS

Home | Current Version | Previous Version | Text Only | Print | Product List | Glossary On
Versions: 1 2 3 4 5 6 7 8 9 10 11 12 13 14 15 16 17 18 19 20 21 22 23 24 25 26 27 28 29 30 31 32 33 34 35 36
000
FTUS45 KREV 171700
TAFRNO
TAF
KRNO 171724Z 1718/1818 20018G32KT P6SM SCT140 SCT200
     FM172300 26015G26KT 4SM FU BKN120
     FM180400 30007KT P6SM FEW100=

USA.gov is the U.S. government's official web portal to all federal, state and local government web resources and services.